JST415 YBCG-YSSY
Flight info
| Callsign | JST415 |
|---|---|
| Flight time | 1h 7m |
| Altitude | 36000 |
| Route | GOMOL Q16 APAGI H91 IGDAM H652 BOREE |
| Aircraft | A320/M-SDE3FGHIRWY/LB1 |
Departure
| Time | 2026-04-21 06:00 |
|---|---|
| Airport | Gold Coast Airport (YBCG) |
Arrival
| Time | 2026-04-21 07:07 |
|---|---|
| Airport | Sydney Kingsford Smith International Airport (YSSY) |
| Time | Latitude | Longitude | Altitude | Speed | Heading |
|---|---|---|---|---|---|
| 2026-04-21 05:43 | -28.16696 | 153.51165 | 26 ft | 0 kts | 60° |
| 2026-04-21 05:45 | -28.16697 | 153.51163 | 26 ft | 1 kts | 60° |
| 2026-04-21 05:45 | -28.16705 | 153.51146 | 31 ft | 3 kts | 57° |
| 2026-04-21 05:46 | -28.16717 | 153.51127 | 31 ft | 3 kts | 51° |
| 2026-04-21 05:46 | -28.16730 | 153.51110 | 27 ft | 3 kts | 40° |
| 2026-04-21 05:46 | -28.16746 | 153.51098 | 28 ft | 3 kts | 12° |
| 2026-04-21 05:46 | -28.16760 | 153.51097 | 28 ft | 1 kts | 331° |
| 2026-04-21 05:47 | -28.16765 | 153.51100 | 29 ft | 0 kts | 331° |
| 2026-04-21 05:48 | -28.16759 | 153.51097 | 28 ft | 6 kts | 331° |
| 2026-04-21 05:49 | -28.16636 | 153.51019 | 27 ft | 27 kts | 330° |
| 2026-04-21 05:49 | -28.16496 | 153.50918 | 26 ft | 14 kts | 302° |
| 2026-04-21 05:49 | -28.16482 | 153.50818 | 29 ft | 14 kts | 320° |
| 2026-04-21 05:49 | -28.16394 | 153.50759 | 29 ft | 16 kts | 331° |
| 2026-04-21 05:50 | -28.16293 | 153.50694 | 29 ft | 17 kts | 330° |
| 2026-04-21 05:50 | -28.16181 | 153.50624 | 27 ft | 19 kts | 331° |
| 2026-04-21 05:50 | -28.16060 | 153.50547 | 26 ft | 21 kts | 330° |
| 2026-04-21 05:50 | -28.15930 | 153.50464 | 27 ft | 22 kts | 330° |
| 2026-04-21 05:51 | -28.15791 | 153.50375 | 29 ft | 24 kts | 330° |
| 2026-04-21 05:51 | -28.15645 | 153.50282 | 27 ft | 20 kts | 329° |
| 2026-04-21 05:51 | -28.15606 | 153.50198 | 26 ft | 8 kts | 264° |
| 2026-04-21 05:51 | -28.15611 | 153.50181 | 28 ft | 0 kts | 249° |
| 2026-04-21 05:52 | -28.15631 | 153.50138 | 27 ft | 16 kts | 239° |
| 2026-04-21 05:53 | -28.15720 | 153.50114 | 26 ft | 1 kts | 150° |
| 2026-04-21 05:59 | -28.15721 | 153.50115 | 26 ft | 6 kts | 150° |
| 2026-04-21 05:59 | -28.15978 | 153.50280 | 29 ft | 74 kts | 150° |
| 2026-04-21 05:59 | -28.16572 | 153.50657 | 28 ft | 122 kts | 150° |
| 2026-04-21 06:00 | -28.18111 | 153.51630 | 959 ft | 122 kts | 154° |
| 2026-04-21 06:00 | -28.18856 | 153.52104 | 1402 ft | 123 kts | 152° |
| 2026-04-21 06:00 | -28.19612 | 153.52584 | 1728 ft | 132 kts | 156° |
| 2026-04-21 06:00 | -28.20514 | 153.53016 | 1873 ft | 150 kts | 161° |
| 2026-04-21 06:01 | -28.21563 | 153.53455 | 2011 ft | 172 kts | 161° |
| 2026-04-21 06:01 | -28.22757 | 153.53950 | 2152 ft | 194 kts | 160° |
| 2026-04-21 06:01 | -28.24104 | 153.54507 | 2301 ft | 217 kts | 163° |
| 2026-04-21 06:01 | -28.25635 | 153.54595 | 2556 ft | 231 kts | 196° |
| 2026-04-21 06:02 | -28.26966 | 153.53506 | 3018 ft | 246 kts | 226° |
| 2026-04-21 06:02 | -28.27942 | 153.51877 | 3543 ft | 252 kts | 235° |
| 2026-04-21 06:02 | -28.28800 | 153.50131 | 4084 ft | 255 kts | 236° |
| 2026-04-21 06:02 | -28.29667 | 153.48372 | 4607 ft | 257 kts | 235° |
| 2026-04-21 06:03 | -28.30584 | 153.46633 | 5171 ft | 257 kts | 233° |
| 2026-04-21 06:03 | -28.31546 | 153.44920 | 5663 ft | 258 kts | 232° |
| 2026-04-21 06:03 | -28.32550 | 153.43219 | 6159 ft | 260 kts | 229° |
| 2026-04-21 06:03 | -28.33584 | 153.41520 | 6628 ft | 263 kts | 231° |
| 2026-04-21 06:04 | -28.34640 | 153.39811 | 7040 ft | 266 kts | 229° |
| 2026-04-21 06:04 | -28.35710 | 153.38091 | 7451 ft | 270 kts | 229° |
| 2026-04-21 06:04 | -28.36779 | 153.36375 | 7918 ft | 269 kts | 230° |
| 2026-04-21 06:04 | -28.37863 | 153.34633 | 8289 ft | 272 kts | 230° |
| 2026-04-21 06:05 | -28.38957 | 153.32873 | 8684 ft | 275 kts | 232° |
| 2026-04-21 06:05 | -28.40064 | 153.31093 | 9057 ft | 277 kts | 229° |
| 2026-04-21 06:05 | -28.41177 | 153.29303 | 9479 ft | 279 kts | 230° |
| 2026-04-21 06:05 | -28.42308 | 153.27491 | 9836 ft | 283 kts | 230° |
| 2026-04-21 06:06 | -28.43452 | 153.25656 | 10196 ft | 287 kts | 232° |
| 2026-04-21 06:06 | -28.44624 | 153.23777 | 10326 ft | 296 kts | 232° |
| 2026-04-21 06:06 | -28.45833 | 153.21837 | 10449 ft | 304 kts | 232° |
| 2026-04-21 06:06 | -28.47067 | 153.19850 | 10570 ft | 311 kts | 231° |
| 2026-04-21 06:07 | -28.48322 | 153.17826 | 10687 ft | 315 kts | 231° |
| 2026-04-21 06:07 | -28.49594 | 153.15776 | 10824 ft | 319 kts | 233° |
| 2026-04-21 06:07 | -28.50874 | 153.13710 | 11018 ft | 320 kts | 233° |
| 2026-04-21 06:07 | -28.52158 | 153.11634 | 11166 ft | 322 kts | 232° |
| 2026-04-21 06:08 | -28.53450 | 153.09547 | 11348 ft | 323 kts | 231° |
| 2026-04-21 06:08 | -28.54743 | 153.07459 | 11535 ft | 323 kts | 233° |
| 2026-04-21 06:08 | -28.56039 | 153.05365 | 11694 ft | 325 kts | 233° |
| 2026-04-21 06:08 | -28.57339 | 153.03265 | 11894 ft | 325 kts | 232° |
| 2026-04-21 06:09 | -28.58642 | 153.01162 | 12047 ft | 326 kts | 233° |
| 2026-04-21 06:09 | -28.59954 | 152.99046 | 12212 ft | 327 kts | 231° |
| 2026-04-21 06:09 | -28.61244 | 152.96966 | 12386 ft | 327 kts | 232° |
| 2026-04-21 06:09 | -28.62559 | 152.94844 | 12534 ft | 329 kts | 233° |
| 2026-04-21 06:10 | -28.63878 | 152.92714 | 12690 ft | 329 kts | 232° |
| 2026-04-21 06:10 | -28.65198 | 152.90577 | 12838 ft | 331 kts | 233° |
| 2026-04-21 06:10 | -28.66518 | 152.88435 | 13004 ft | 330 kts | 232° |
| 2026-04-21 06:10 | -28.67837 | 152.86291 | 13154 ft | 331 kts | 234° |
| 2026-04-21 06:11 | -28.69164 | 152.84137 | 13293 ft | 332 kts | 233° |
| 2026-04-21 06:11 | -28.70487 | 152.81981 | 13499 ft | 330 kts | 233° |
| 2026-04-21 06:11 | -28.71753 | 152.79917 | 14118 ft | 305 kts | 233° |
| 2026-04-21 06:11 | -28.72921 | 152.78017 | 14747 ft | 280 kts | 232° |
| 2026-04-21 06:12 | -28.74000 | 152.76263 | 15336 ft | 260 kts | 232° |
| 2026-04-21 06:12 | -28.75017 | 152.74609 | 15723 ft | 252 kts | 232° |
| 2026-04-21 06:12 | -28.76020 | 152.72982 | 16039 ft | 251 kts | 232° |
| 2026-04-21 06:12 | -28.77049 | 152.71316 | 16225 ft | 265 kts | 231° |
| 2026-04-21 06:13 | -28.78154 | 152.69530 | 16362 ft | 287 kts | 233° |
| 2026-04-21 06:13 | -28.79342 | 152.67603 | 16495 ft | 307 kts | 232° |
| 2026-04-21 06:13 | -28.80608 | 152.65544 | 16624 ft | 327 kts | 232° |
| 2026-04-21 06:13 | -28.81947 | 152.63362 | 16757 ft | 345 kts | 234° |
| 2026-04-21 06:14 | -28.83354 | 152.61079 | 17050 ft | 356 kts | 232° |
| 2026-04-21 06:14 | -28.85026 | 152.58970 | 17514 ft | 361 kts | 220° |
| 2026-04-21 06:14 | -28.87050 | 152.57266 | 18105 ft | 363 kts | 210° |
| 2026-04-21 06:14 | -28.89290 | 152.55909 | 18647 ft | 366 kts | 207° |
| 2026-04-21 06:15 | -28.91557 | 152.54569 | 19207 ft | 368 kts | 206° |
| 2026-04-21 06:15 | -28.93836 | 152.53219 | 19769 ft | 370 kts | 206° |
| 2026-04-21 06:15 | -28.96127 | 152.51859 | 20359 ft | 372 kts | 206° |
| 2026-04-21 06:15 | -28.98423 | 152.50494 | 20992 ft | 372 kts | 206° |
| 2026-04-21 06:16 | -29.00692 | 152.49143 | 21575 ft | 373 kts | 206° |
| 2026-04-21 06:16 | -29.02997 | 152.47769 | 22157 ft | 374 kts | 206° |
| 2026-04-21 06:16 | -29.05310 | 152.46390 | 22718 ft | 376 kts | 206° |
| 2026-04-21 06:16 | -29.07631 | 152.45005 | 23281 ft | 377 kts | 206° |
| 2026-04-21 06:17 | -29.09961 | 152.43614 | 23785 ft | 379 kts | 206° |
| 2026-04-21 06:17 | -29.12300 | 152.42218 | 24222 ft | 380 kts | 206° |
| 2026-04-21 06:17 | -29.14656 | 152.40814 | 24636 ft | 382 kts | 206° |
| 2026-04-21 06:17 | -29.17019 | 152.39404 | 25044 ft | 384 kts | 206° |
| 2026-04-21 06:18 | -29.19393 | 152.37986 | 25453 ft | 386 kts | 206° |
| 2026-04-21 06:18 | -29.21772 | 152.36563 | 25850 ft | 387 kts | 206° |
| 2026-04-21 06:18 | -29.24166 | 152.35127 | 26233 ft | 389 kts | 206° |
| 2026-04-21 06:18 | -29.26575 | 152.33681 | 26626 ft | 391 kts | 206° |
| 2026-04-21 06:19 | -29.28992 | 152.32229 | 27002 ft | 393 kts | 206° |
| 2026-04-21 06:19 | -29.31421 | 152.30768 | 27368 ft | 395 kts | 206° |
| 2026-04-21 06:19 | -29.33864 | 152.29303 | 27743 ft | 397 kts | 206° |
| 2026-04-21 06:19 | -29.36318 | 152.27833 | 28107 ft | 399 kts | 207° |
| 2026-04-21 06:20 | -29.38752 | 152.26376 | 28466 ft | 401 kts | 207° |
| 2026-04-21 06:20 | -29.41230 | 152.24888 | 28808 ft | 403 kts | 207° |
| 2026-04-21 06:20 | -29.43722 | 152.23392 | 29165 ft | 405 kts | 207° |
| 2026-04-21 06:20 | -29.46228 | 152.21891 | 29521 ft | 407 kts | 207° |
| 2026-04-21 06:21 | -29.48744 | 152.20378 | 29889 ft | 409 kts | 207° |
| 2026-04-21 06:21 | -29.51270 | 152.18853 | 30232 ft | 411 kts | 207° |
| 2026-04-21 06:21 | -29.53812 | 152.17315 | 30524 ft | 413 kts | 207° |
| 2026-04-21 06:21 | -29.56349 | 152.15785 | 30921 ft | 412 kts | 207° |
| 2026-04-21 06:22 | -29.58880 | 152.14262 | 31349 ft | 410 kts | 207° |
| 2026-04-21 06:22 | -29.61400 | 152.12745 | 31773 ft | 408 kts | 207° |
| 2026-04-21 06:22 | -29.63911 | 152.11230 | 32191 ft | 407 kts | 207° |
| 2026-04-21 06:22 | -29.66410 | 152.09716 | 32622 ft | 405 kts | 207° |
| 2026-04-21 06:23 | -29.68912 | 152.08224 | 33060 ft | 404 kts | 204° |
| 2026-04-21 06:23 | -29.71538 | 152.07109 | 33499 ft | 403 kts | 195° |
| 2026-04-21 06:23 | -29.74263 | 152.06382 | 33924 ft | 401 kts | 194° |
| 2026-04-21 06:23 | -29.76989 | 152.05679 | 34183 ft | 401 kts | 194° |
| 2026-04-21 06:24 | -29.79711 | 152.04975 | 34217 ft | 401 kts | 194° |
| 2026-04-21 06:24 | -29.85142 | 152.03558 | 34217 ft | 400 kts | 194° |
| 2026-04-21 06:25 | -29.90536 | 152.02155 | 34238 ft | 400 kts | 194° |
| 2026-04-21 06:25 | -29.95959 | 152.00731 | 34231 ft | 400 kts | 194° |
| 2026-04-21 06:26 | -30.01380 | 151.99307 | 34238 ft | 400 kts | 194° |
| 2026-04-21 06:26 | -30.06805 | 151.97884 | 34246 ft | 400 kts | 194° |
| 2026-04-21 06:27 | -30.12237 | 151.96458 | 34239 ft | 400 kts | 194° |
| 2026-04-21 06:27 | -30.17670 | 151.95036 | 34264 ft | 401 kts | 194° |
| 2026-04-21 06:28 | -30.23105 | 151.93607 | 34261 ft | 401 kts | 194° |
| 2026-04-21 06:28 | -30.28553 | 151.92167 | 34318 ft | 403 kts | 194° |
| 2026-04-21 06:28 | -30.31290 | 151.91444 | 34608 ft | 404 kts | 195° |
| 2026-04-21 06:29 | -30.33952 | 151.90431 | 34922 ft | 403 kts | 202° |
| 2026-04-21 06:29 | -30.36552 | 151.89222 | 35233 ft | 403 kts | 202° |
| 2026-04-21 06:29 | -30.39149 | 151.88011 | 35527 ft | 402 kts | 202° |
| 2026-04-21 06:29 | -30.41745 | 151.86801 | 35805 ft | 402 kts | 202° |
| 2026-04-21 06:30 | -30.44333 | 151.85595 | 36107 ft | 402 kts | 202° |
| 2026-04-21 06:30 | -30.46935 | 151.84382 | 36230 ft | 403 kts | 202° |
| 2026-04-21 06:30 | -30.49535 | 151.83170 | 36252 ft | 403 kts | 202° |
| 2026-04-21 06:31 | -30.54734 | 151.80751 | 36252 ft | 402 kts | 202° |
| 2026-04-21 06:31 | -30.59925 | 151.78328 | 36250 ft | 402 kts | 202° |
| 2026-04-21 06:32 | -30.65084 | 151.75909 | 36253 ft | 402 kts | 202° |
| 2026-04-21 06:32 | -30.70276 | 151.73477 | 36258 ft | 402 kts | 202° |
| 2026-04-21 06:33 | -30.75474 | 151.71050 | 36265 ft | 403 kts | 202° |
| 2026-04-21 06:33 | -30.80677 | 151.68623 | 36273 ft | 403 kts | 202° |
| 2026-04-21 06:34 | -30.85880 | 151.66174 | 36278 ft | 403 kts | 203° |
| 2026-04-21 06:34 | -30.91089 | 151.63720 | 36277 ft | 404 kts | 202° |
| 2026-04-21 06:35 | -30.96299 | 151.61273 | 36274 ft | 403 kts | 202° |
| 2026-04-21 06:35 | -31.01501 | 151.58823 | 36282 ft | 403 kts | 202° |
| 2026-04-21 06:36 | -31.06717 | 151.56361 | 36263 ft | 413 kts | 202° |
| 2026-04-21 06:36 | -31.12105 | 151.53814 | 36271 ft | 421 kts | 202° |
| 2026-04-21 06:37 | -31.17561 | 151.51233 | 36273 ft | 424 kts | 203° |
| 2026-04-21 06:37 | -31.23026 | 151.48643 | 36274 ft | 424 kts | 202° |
| 2026-04-21 06:38 | -31.28488 | 151.46059 | 36276 ft | 424 kts | 202° |
| 2026-04-21 06:38 | -31.33963 | 151.43465 | 36297 ft | 425 kts | 203° |
| 2026-04-21 06:39 | -31.39437 | 151.40859 | 36296 ft | 426 kts | 202° |
| 2026-04-21 06:39 | -31.44966 | 151.38346 | 36294 ft | 426 kts | 201° |
| 2026-04-21 06:40 | -31.50522 | 151.35915 | 36293 ft | 427 kts | 201° |
| 2026-04-21 06:40 | -31.66360 | 151.28842 | 36296 ft | 426 kts | 202° |
| 2026-04-21 06:41 | -31.88547 | 151.18884 | 36310 ft | 427 kts | 202° |
| 2026-04-21 06:41 | -31.98683 | 151.14312 | 36306 ft | 427 kts | 201° |
| 2026-04-21 06:42 | -32.04232 | 151.11821 | 36323 ft | 426 kts | 201° |
| 2026-04-21 06:42 | -32.06993 | 151.10583 | 36197 ft | 419 kts | 201° |
| 2026-04-21 06:42 | -32.09670 | 151.09381 | 35591 ft | 406 kts | 201° |
| 2026-04-21 06:42 | -32.12290 | 151.08203 | 34757 ft | 400 kts | 201° |
| 2026-04-21 06:43 | -32.14866 | 151.07046 | 34025 ft | 392 kts | 201° |
| 2026-04-21 06:43 | -32.17409 | 151.05904 | 33401 ft | 389 kts | 201° |
| 2026-04-21 06:43 | -32.19928 | 151.04772 | 32919 ft | 386 kts | 201° |
| 2026-04-21 06:43 | -32.22428 | 151.03651 | 32405 ft | 383 kts | 201° |
| 2026-04-21 06:44 | -32.24909 | 151.02535 | 31918 ft | 380 kts | 201° |
| 2026-04-21 06:44 | -32.27374 | 151.01422 | 31440 ft | 378 kts | 201° |
| 2026-04-21 06:44 | -32.29790 | 151.00328 | 30984 ft | 376 kts | 201° |
| 2026-04-21 06:44 | -32.32224 | 150.99226 | 30532 ft | 374 kts | 201° |
| 2026-04-21 06:45 | -32.34645 | 150.98133 | 30267 ft | 373 kts | 201° |
| 2026-04-21 06:45 | -32.37069 | 150.97039 | 29991 ft | 373 kts | 201° |
| 2026-04-21 06:45 | -32.39493 | 150.95944 | 29707 ft | 372 kts | 201° |
| 2026-04-21 06:45 | -32.41907 | 150.94852 | 29432 ft | 370 kts | 201° |
| 2026-04-21 06:46 | -32.44286 | 150.93776 | 29092 ft | 364 kts | 201° |
| 2026-04-21 06:46 | -32.46643 | 150.92711 | 28689 ft | 361 kts | 201° |
| 2026-04-21 06:46 | -32.49052 | 150.91905 | 28291 ft | 359 kts | 191° |
| 2026-04-21 06:46 | -32.51538 | 150.91676 | 27857 ft | 359 kts | 180° |
| 2026-04-21 06:47 | -32.54025 | 150.91992 | 27430 ft | 360 kts | 174° |
| 2026-04-21 06:47 | -32.56498 | 150.92432 | 27017 ft | 359 kts | 174° |
| 2026-04-21 06:47 | -32.58963 | 150.92869 | 26603 ft | 358 kts | 174° |
| 2026-04-21 06:47 | -32.61422 | 150.93302 | 26187 ft | 357 kts | 174° |
| 2026-04-21 06:48 | -32.63872 | 150.93729 | 25776 ft | 356 kts | 174° |
| 2026-04-21 06:48 | -32.66323 | 150.94159 | 25364 ft | 355 kts | 173° |
| 2026-04-21 06:48 | -32.68766 | 150.94591 | 24935 ft | 355 kts | 173° |
| 2026-04-21 06:48 | -32.71204 | 150.95025 | 24507 ft | 354 kts | 173° |
| 2026-04-21 06:49 | -32.73639 | 150.95459 | 24077 ft | 354 kts | 173° |
| 2026-04-21 06:49 | -32.76040 | 150.95888 | 23603 ft | 354 kts | 173° |
| 2026-04-21 06:49 | -32.78465 | 150.96321 | 23142 ft | 351 kts | 173° |
| 2026-04-21 06:49 | -32.80875 | 150.96748 | 22691 ft | 349 kts | 173° |
| 2026-04-21 06:50 | -32.83270 | 150.97173 | 22241 ft | 347 kts | 173° |
| 2026-04-21 06:50 | -32.85648 | 150.97595 | 21790 ft | 345 kts | 173° |
| 2026-04-21 06:50 | -32.88013 | 150.98016 | 21342 ft | 342 kts | 173° |
| 2026-04-21 06:50 | -32.90363 | 150.98434 | 20895 ft | 341 kts | 173° |
| 2026-04-21 06:51 | -32.91947 | 150.98717 | 20594 ft | 340 kts | 173° |
| 2026-04-21 06:51 | -32.95032 | 150.99264 | 19993 ft | 338 kts | 173° |
| 2026-04-21 06:51 | -32.97354 | 150.99676 | 19541 ft | 337 kts | 173° |
| 2026-04-21 06:51 | -32.98891 | 150.99949 | 19243 ft | 336 kts | 173° |
| 2026-04-21 06:52 | -33.01203 | 151.00363 | 18796 ft | 335 kts | 172° |
| 2026-04-21 06:52 | -33.03508 | 151.00778 | 18310 ft | 335 kts | 172° |
| 2026-04-21 06:52 | -33.05799 | 151.01187 | 17854 ft | 332 kts | 172° |
| 2026-04-21 06:52 | -33.08081 | 151.01593 | 17409 ft | 330 kts | 172° |
| 2026-04-21 06:53 | -33.10341 | 151.01997 | 16970 ft | 327 kts | 172° |
| 2026-04-21 06:53 | -33.12587 | 151.02402 | 16531 ft | 325 kts | 172° |
| 2026-04-21 06:53 | -33.14820 | 151.02803 | 16098 ft | 324 kts | 172° |
| 2026-04-21 06:53 | -33.17042 | 151.03200 | 15671 ft | 322 kts | 172° |
| 2026-04-21 06:54 | -33.19253 | 151.03596 | 15234 ft | 321 kts | 172° |
| 2026-04-21 06:54 | -33.21456 | 151.03992 | 14805 ft | 320 kts | 172° |
| 2026-04-21 06:54 | -33.23651 | 151.04387 | 14381 ft | 318 kts | 172° |
| 2026-04-21 06:54 | -33.25838 | 151.04787 | 13944 ft | 318 kts | 172° |
| 2026-04-21 06:55 | -33.28013 | 151.05201 | 13496 ft | 315 kts | 171° |
| 2026-04-21 06:55 | -33.30172 | 151.05620 | 13076 ft | 314 kts | 171° |
| 2026-04-21 06:55 | -33.32320 | 151.06038 | 12659 ft | 311 kts | 171° |
| 2026-04-21 06:55 | -33.34448 | 151.06451 | 12245 ft | 309 kts | 171° |
| 2026-04-21 06:56 | -33.36556 | 151.06859 | 11841 ft | 306 kts | 171° |
| 2026-04-21 06:56 | -33.38630 | 151.07260 | 11440 ft | 305 kts | 171° |
| 2026-04-21 06:56 | -33.40718 | 151.07662 | 11031 ft | 303 kts | 171° |
| 2026-04-21 06:56 | -33.42797 | 151.08061 | 10629 ft | 302 kts | 171° |
| 2026-04-21 06:57 | -33.44854 | 151.08458 | 10378 ft | 296 kts | 171° |
| 2026-04-21 06:57 | -33.46853 | 151.08842 | 10259 ft | 285 kts | 171° |
| 2026-04-21 06:57 | -33.48786 | 151.09213 | 10031 ft | 277 kts | 171° |
| 2026-04-21 06:57 | -33.50672 | 151.09577 | 9411 ft | 273 kts | 171° |
| 2026-04-21 06:58 | -33.52549 | 151.09936 | 8787 ft | 272 kts | 171° |
| 2026-04-21 06:58 | -33.54401 | 151.10290 | 8204 ft | 268 kts | 171° |
| 2026-04-21 06:58 | -33.56227 | 151.10642 | 7629 ft | 264 kts | 171° |
| 2026-04-21 06:58 | -33.58030 | 151.10991 | 7067 ft | 261 kts | 171° |
| 2026-04-21 06:59 | -33.59812 | 151.11335 | 6504 ft | 258 kts | 170° |
| 2026-04-21 06:59 | -33.61584 | 151.11675 | 5833 ft | 257 kts | 171° |
| 2026-04-21 06:59 | -33.63361 | 151.11958 | 5138 ft | 258 kts | 173° |
| 2026-04-21 06:59 | -33.65108 | 151.12163 | 4890 ft | 241 kts | 174° |
| 2026-04-21 07:00 | -33.66696 | 151.12324 | 4830 ft | 218 kts | 175° |
| 2026-04-21 07:00 | -33.68142 | 151.12467 | 4780 ft | 204 kts | 174° |
| 2026-04-21 07:00 | -33.69529 | 151.12564 | 4722 ft | 191 kts | 178° |
| 2026-04-21 07:00 | -33.70802 | 151.12682 | 4732 ft | 175 kts | 172° |
| 2026-04-21 07:01 | -33.71964 | 151.12915 | 4593 ft | 165 kts | 169° |
| 2026-04-21 07:01 | -33.73072 | 151.13180 | 4398 ft | 159 kts | 169° |
| 2026-04-21 07:01 | -33.75189 | 151.13716 | 4006 ft | 152 kts | 168° |
| 2026-04-21 07:02 | -33.76209 | 151.13978 | 3809 ft | 148 kts | 168° |
| 2026-04-21 07:02 | -33.77207 | 151.14235 | 3602 ft | 145 kts | 167° |
| 2026-04-21 07:02 | -33.78180 | 151.14486 | 3428 ft | 142 kts | 167° |
| 2026-04-21 07:02 | -33.79139 | 151.14734 | 3230 ft | 140 kts | 168° |
| 2026-04-21 07:03 | -33.80071 | 151.14975 | 3059 ft | 138 kts | 168° |
| 2026-04-21 07:03 | -33.81021 | 151.15220 | 2863 ft | 137 kts | 168° |
| 2026-04-21 07:03 | -33.81932 | 151.15456 | 2687 ft | 136 kts | 168° |
| 2026-04-21 07:03 | -33.82851 | 151.15694 | 2508 ft | 134 kts | 168° |
| 2026-04-21 07:04 | -33.83762 | 151.15930 | 2327 ft | 133 kts | 168° |
| 2026-04-21 07:04 | -33.84669 | 151.16164 | 2147 ft | 133 kts | 169° |
| 2026-04-21 07:04 | -33.85570 | 151.16397 | 1968 ft | 133 kts | 168° |
| 2026-04-21 07:04 | -33.86468 | 151.16630 | 1781 ft | 133 kts | 167° |
| 2026-04-21 07:05 | -33.87371 | 151.16864 | 1621 ft | 131 kts | 169° |
| 2026-04-21 07:05 | -33.88264 | 151.17095 | 1430 ft | 134 kts | 167° |
| 2026-04-21 07:05 | -33.89166 | 151.17329 | 1247 ft | 132 kts | 168° |
| 2026-04-21 07:05 | -33.90060 | 151.17561 | 1078 ft | 131 kts | 168° |
| 2026-04-21 07:06 | -33.90952 | 151.17792 | 898 ft | 131 kts | 166° |
| 2026-04-21 07:06 | -33.91841 | 151.18026 | 728 ft | 132 kts | 168° |
| 2026-04-21 07:06 | -33.92731 | 151.18274 | 522 ft | 134 kts | 170° |
| 2026-04-21 07:06 | -33.93629 | 151.18474 | 345 ft | 128 kts | 167° |
| 2026-04-21 07:07 | -33.94520 | 151.18720 | 176 ft | 131 kts | 169° |
| 2026-04-21 07:07 | -33.95409 | 151.18945 | 30 ft | 128 kts | 168° |
| 2026-04-21 07:07 | -33.96125 | 151.19130 | 28 ft | 69 kts | 168° |
| 2026-04-21 07:07 | -33.96355 | 151.19189 | 26 ft | 19 kts | 168° |
| 2026-04-21 07:08 | -33.96489 | 151.19216 | 25 ft | 20 kts | 175° |
| 2026-04-21 07:08 | -33.96623 | 151.19200 | 26 ft | 9 kts | 195° |
| 2026-04-21 07:08 | -33.96654 | 151.19189 | 27 ft | 15 kts | 198° |